createdAt,value
2017-03-20T00:00:32.751Z,0
2017-03-20T00:01:43.309Z,0
2017-03-20T00:02:53.620Z,0
2017-03-20T00:04:03.927Z,0
2017-03-20T00:05:14.276Z,0
2017-03-20T00:06:24.574Z,0
2017-03-20T00:07:35.204Z,0
2017-03-20T00:08:45.508Z,0
2017-03-20T00:09:55.508Z,0
2017-03-20T00:11:05.809Z,0
2017-03-20T00:12:16.130Z,0
2017-03-20T00:13:26.688Z,0
2017-03-20T00:14:37.003Z,0
2017-03-20T00:15:47.303Z,0
2017-03-20T00:16:57.284Z,0
2017-03-20T00:18:07.598Z,0
2017-03-20T00:19:18.150Z,0
2017-03-20T00:20:28.449Z,0
2017-03-20T00:21:38.784Z,0
2017-03-20T00:22:49.095Z,0
2017-03-20T00:23:59.089Z,0
2017-03-20T00:25:09.642Z,0
2017-03-20T00:26:19.940Z,0
2017-03-20T00:27:30.242Z,0
2017-03-20T00:28:40.241Z,0
2017-03-20T00:29:50.228Z,0
2017-03-20T00:31:00.780Z,0
2017-03-20T00:32:10.809Z,0
2017-03-20T00:33:21.101Z,0
2017-03-20T00:34:30.777Z,0
2017-03-20T00:35:41.126Z,0
2017-03-20T00:36:51.679Z,0
2017-03-20T00:38:01.672Z,0
2017-03-20T00:39:11.974Z,0
2017-03-20T00:40:21.975Z,0
2017-03-20T00:41:31.650Z,0
2017-03-20T00:42:42.222Z,0
2017-03-20T00:43:51.898Z,0
2017-03-20T00:45:02.209Z,0
2017-03-20T00:46:12.502Z,0
2017-03-20T00:47:22.823Z,0
2017-03-20T00:48:33.073Z,0
2017-03-20T00:49:43.070Z,0
2017-03-20T00:50:53.057Z,0
2017-03-20T00:52:03.394Z,0
2017-03-20T00:53:13.700Z,0
2017-03-20T00:54:24.270Z,0
2017-03-20T00:55:34.572Z,0
2017-03-20T00:56:44.548Z,0
2017-03-20T00:57:54.846Z,0
2017-03-20T00:59:05.143Z,0
2017-03-20T01:00:15.686Z,0
2017-03-20T01:01:25.986Z,0
2017-03-20T01:02:36.294Z,0
2017-03-20T01:03:46.599Z,0
2017-03-20T01:04:56.903Z,0
2017-03-20T01:06:06.861Z,0
2017-03-20T01:07:17.185Z,0
2017-03-20T01:08:27.496Z,0
2017-03-20T01:09:37.171Z,0
2017-03-20T01:10:47.463Z,0
2017-03-20T01:11:57.694Z,0
2017-03-20T01:13:07.994Z,0
2017-03-20T01:14:18.309Z,0
2017-03-20T01:15:28.607Z,0
2017-03-20T01:16:38.941Z,0
2017-03-20T01:17:49.490Z,0
2017-03-20T01:18:59.799Z,0
2017-03-20T01:20:09.799Z,0
2017-03-20T01:21:20.109Z,0
2017-03-20T01:22:30.401Z,0
2017-03-20T01:23:40.741Z,0
2017-03-20T01:24:50.730Z,0
2017-03-20T01:26:00.715Z,0
2017-03-20T01:27:10.717Z,0
2017-03-20T01:28:20.753Z,0
2017-03-20T01:29:31.002Z,0
2017-03-20T01:30:41.001Z,0
2017-03-20T01:31:51.297Z,0
2017-03-20T01:33:01.601Z,0
2017-03-20T01:34:11.607Z,0
2017-03-20T01:35:22.167Z,0
2017-03-20T01:36:32.500Z,0
2017-03-20T01:37:42.508Z,0
2017-03-20T01:38:52.501Z,0
2017-03-20T01:40:02.799Z,0
2017-03-20T01:41:13.392Z,0
2017-03-20T01:42:23.374Z,0
2017-03-20T01:43:33.694Z,0
2017-03-20T01:44:44.001Z,0
2017-03-20T01:45:54.447Z,0
2017-03-20T01:47:05.047Z,0
2017-03-20T01:48:15.728Z,0
2017-03-20T01:49:26.058Z,0
2017-03-20T01:50:36.358Z,0
2017-03-20T01:51:46.651Z,0
2017-03-20T01:52:57.256Z,0
2017-03-20T01:54:07.255Z,0
2017-03-20T01:55:17.543Z,0
2017-03-20T01:56:27.852Z,0
2017-03-20T01:57:38.159Z,0
2017-03-20T01:58:48.455Z,0
2017-03-20T01:59:58.755Z,0
2017-03-20T02:01:09.053Z,0
2017-03-20T02:02:19.355Z,0
2017-03-20T02:03:29.657Z,0
2017-03-20T02:04:40.214Z,0
2017-03-20T02:05:49.885Z,0
2017-03-20T02:07:00.192Z,0
2017-03-20T02:08:10.493Z,0
2017-03-20T02:09:20.804Z,0
2017-03-20T02:10:31.088Z,0
2017-03-20T02:11:41.389Z,0
2017-03-20T02:12:51.380Z,0
2017-03-20T02:14:01.362Z,0
2017-03-20T02:15:11.655Z,0
2017-03-20T02:16:22.209Z,0
2017-03-20T02:17:32.198Z,0
2017-03-20T02:18:42.189Z,0
2017-03-20T02:19:52.485Z,0
2017-03-20T02:21:02.782Z,0
2017-03-20T02:22:13.329Z,0
2017-03-20T02:23:23.322Z,0
2017-03-20T02:24:33.619Z,0
2017-03-20T02:25:43.914Z,0
2017-03-20T02:26:54.208Z,0
2017-03-20T02:28:04.455Z,0
2017-03-20T02:29:14.765Z,0
2017-03-20T02:30:25.076Z,0
2017-03-20T02:31:35.380Z,0
2017-03-20T02:32:45.712Z,0
2017-03-20T02:33:56.263Z,0
2017-03-20T02:35:06.563Z,0
2017-03-20T02:36:16.891Z,0
2017-03-20T02:37:27.191Z,0
2017-03-20T02:38:37.492Z,0
2017-03-20T02:39:47.731Z,0
2017-03-20T02:40:57.713Z,0
2017-03-20T02:42:08.009Z,0
2017-03-20T02:43:18.306Z,0
2017-03-20T02:44:28.692Z,0
2017-03-20T02:45:39.282Z,0
2017-03-20T02:46:49.571Z,0
2017-03-20T02:47:59.556Z,0
2017-03-20T02:49:09.857Z,0
2017-03-20T02:50:20.151Z,0
2017-03-20T02:51:30.698Z,0
2017-03-20T02:52:40.371Z,0
2017-03-20T02:53:50.052Z,0
2017-03-20T02:55:00.359Z,0
2017-03-20T02:56:10.675Z,0
2017-03-20T02:57:21.234Z,0
2017-03-20T02:58:32.183Z,0
2017-03-20T02:59:42.477Z,0
2017-03-20T03:00:52.771Z,0
2017-03-20T03:02:02.746Z,0
2017-03-20T03:03:13.296Z,0
2017-03-20T03:04:23.613Z,0
2017-03-20T03:05:33.912Z,0
2017-03-20T03:06:44.205Z,0
2017-03-20T03:07:54.201Z,0
2017-03-20T03:09:04.823Z,0
2017-03-20T03:10:15.124Z,0
2017-03-20T03:11:25.417Z,0
2017-03-20T03:12:35.722Z,0
2017-03-20T03:13:46.031Z,0
2017-03-20T03:14:56.275Z,0
2017-03-20T03:16:06.256Z,0
2017-03-20T03:17:16.252Z,0
2017-03-20T03:18:26.555Z,0
2017-03-20T03:19:36.538Z,0
2017-03-20T03:20:47.081Z,0
2017-03-20T03:21:57.392Z,0
2017-03-20T03:23:07.699Z,0
2017-03-20T03:24:17.994Z,0
2017-03-20T03:25:28.295Z,0
2017-03-20T03:26:38.887Z,0
2017-03-20T03:27:49.207Z,0
2017-03-20T03:28:59.515Z,0
2017-03-20T03:30:10.013Z,0
2017-03-20T03:31:19.997Z,0
2017-03-20T03:32:30.582Z,0
2017-03-20T03:33:40.883Z,0
2017-03-20T03:34:51.182Z,0
2017-03-20T03:36:01.487Z,0
2017-03-20T03:37:11.466Z,0
2017-03-20T03:38:21.710Z,0
2017-03-20T03:39:32.019Z,0
2017-03-20T03:40:42.313Z,0
2017-03-20T03:41:52.289Z,0
2017-03-20T03:43:02.589Z,0
2017-03-20T03:44:13.138Z,0
2017-03-20T03:45:23.437Z,0
2017-03-20T03:46:33.735Z,0
2017-03-20T03:47:43.738Z,0
2017-03-20T03:48:53.983Z,0
2017-03-20T03:50:04.535Z,0
2017-03-20T03:51:14.828Z,0
2017-03-20T03:52:25.124Z,0
2017-03-20T03:53:35.117Z,0
2017-03-20T03:54:45.420Z,0
2017-03-20T03:55:55.965Z,0
2017-03-20T03:57:05.949Z,0
2017-03-20T03:58:15.940Z,0
2017-03-20T03:59:25.946Z,0
2017-03-20T04:00:35.932Z,0
2017-03-20T04:01:46.176Z,0
2017-03-20T04:02:56.173Z,0
2017-03-20T04:04:06.472Z,0
2017-03-20T04:05:16.774Z,0
2017-03-20T04:06:27.082Z,0
2017-03-20T04:07:37.316Z,0
2017-03-20T04:08:47.303Z,0
2017-03-20T04:09:57.604Z,0
2017-03-20T04:11:07.603Z,0
2017-03-20T04:12:17.594Z,0
2017-03-20T04:13:28.151Z,0
2017-03-20T04:14:38.141Z,0
2017-03-20T04:15:48.439Z,0
2017-03-20T04:16:58.733Z,0
2017-03-20T04:18:09.033Z,0
2017-03-20T04:19:19.636Z,0
2017-03-20T04:20:29.626Z,0
2017-03-20T04:21:39.613Z,0
2017-03-20T04:22:49.914Z,0
2017-03-20T04:23:59.916Z,0
2017-03-20T04:25:10.557Z,0
2017-03-20T04:26:20.847Z,0
2017-03-20T04:27:30.829Z,0
2017-03-20T04:28:40.826Z,0
2017-03-20T04:29:51.173Z,0
2017-03-20T04:31:01.723Z,0
2017-03-20T04:32:12.025Z,0
2017-03-20T04:33:22.324Z,0
2017-03-20T04:34:32.622Z,0
2017-03-20T04:35:42.615Z,0
2017-03-20T04:36:53.162Z,0
2017-03-20T04:38:03.156Z,0
2017-03-20T04:39:13.469Z,0
2017-03-20T04:40:23.772Z,0
2017-03-20T04:41:34.077Z,0
2017-03-20T04:42:44.614Z,0
2017-03-20T04:43:54.927Z,0
2017-03-20T04:45:05.264Z,0
2017-03-20T04:46:15.565Z,0
2017-03-20T04:47:25.869Z,0
2017-03-20T04:48:36.418Z,0
2017-03-20T04:49:46.713Z,0
2017-03-20T04:50:57.014Z,0
2017-03-20T04:52:07.320Z,0
2017-03-20T04:53:17.008Z,0
2017-03-20T04:54:27.621Z,0
2017-03-20T04:55:37.917Z,0
2017-03-20T04:56:48.224Z,0
2017-03-20T04:57:58.521Z,0
2017-03-20T04:59:08.825Z,0
2017-03-20T05:00:19.377Z,0
2017-03-20T05:01:29.671Z,0
2017-03-20T05:02:39.686Z,0
2017-03-20T05:03:49.993Z,0
2017-03-20T05:05:00.296Z,0
2017-03-20T05:06:10.852Z,0
2017-03-20T05:07:21.151Z,0
2017-03-20T05:08:31.453Z,0
2017-03-20T05:09:41.430Z,0
2017-03-20T05:10:51.722Z,0
2017-03-20T05:12:02.316Z,0
2017-03-20T05:13:12.627Z,0
2017-03-20T05:14:22.934Z,0
2017-03-20T05:15:33.247Z,0
2017-03-20T05:16:43.562Z,0
2017-03-20T05:17:54.115Z,0
2017-03-20T05:19:04.418Z,0
2017-03-20T05:20:14.716Z,0
2017-03-20T05:21:25.027Z,64
2017-03-20T05:22:35.018Z,68
2017-03-20T05:23:45.594Z,56
2017-03-20T05:24:55.895Z,56
2017-03-20T05:26:05.891Z,52
2017-03-20T05:27:16.208Z,76
2017-03-20T05:28:26.522Z,72
2017-03-20T05:29:36.765Z,68
2017-03-20T05:30:47.068Z,76
2017-03-20T05:31:57.446Z,56
2017-03-20T05:33:07.748Z,64
2017-03-20T05:34:18.048Z,60
2017-03-20T05:35:28.659Z,76
2017-03-20T05:36:38.956Z,88
2017-03-20T05:37:48.958Z,96
2017-03-20T05:38:58.961Z,104
2017-03-20T05:40:09.283Z,116
2017-03-20T05:41:19.843Z,132
2017-03-20T05:42:30.131Z,144
2017-03-20T05:43:40.445Z,132
2017-03-20T05:44:50.745Z,92
2017-03-20T05:46:01.052Z,64
2017-03-20T05:47:11.651Z,60
2017-03-20T05:48:21.665Z,68
2017-03-20T05:49:31.971Z,88
2017-03-20T05:50:41.944Z,128
2017-03-20T05:51:51.934Z,228
2017-03-20T05:53:02.252Z,172
2017-03-20T05:54:12.576Z,152
2017-03-20T05:55:21.946Z,144
2017-03-20T05:56:31.945Z,172
2017-03-20T05:57:42.253Z,200
2017-03-20T05:58:52.821Z,256
2017-03-20T06:00:02.825Z,248
2017-03-20T06:01:13.124Z,228
2017-03-20T06:02:23.424Z,272
2017-03-20T06:03:33.743Z,236
2017-03-20T06:04:44.362Z,172
2017-03-20T06:05:54.675Z,176
2017-03-20T06:07:04.970Z,224
2017-03-20T06:08:14.970Z,232
2017-03-20T06:09:24.972Z,224
2017-03-20T06:10:36.246Z,236
2017-03-20T06:11:46.563Z,328
2017-03-20T06:12:56.576Z,276
2017-03-20T06:14:06.898Z,300
2017-03-20T06:15:17.203Z,308
2017-03-20T06:16:27.814Z,300
2017-03-20T06:17:38.116Z,300
2017-03-20T06:18:48.138Z,404
2017-03-20T06:19:58.461Z,344
2017-03-20T06:21:08.771Z,360
2017-03-20T06:22:19.391Z,420
2017-03-20T06:23:29.706Z,464
2017-03-20T06:24:40.042Z,496
2017-03-20T06:25:50.326Z,636
2017-03-20T06:27:00.621Z,588
2017-03-20T06:28:10.906Z,572
2017-03-20T06:29:21.283Z,524
2017-03-20T06:30:31.584Z,496
2017-03-20T06:31:41.894Z,524
2017-03-20T06:32:51.869Z,620
2017-03-20T06:34:02.435Z,652
2017-03-20T06:35:12.735Z,632
2017-03-20T06:36:23.066Z,692
2017-03-20T06:37:32.745Z,568
2017-03-20T06:38:43.062Z,536
2017-03-20T06:39:53.354Z,492
2017-03-20T06:41:03.349Z,596
2017-03-20T06:42:13.667Z,568
2017-03-20T06:43:23.971Z,724
2017-03-20T06:44:33.978Z,764
2017-03-20T06:45:44.588Z,968
2017-03-20T06:46:54.608Z,1056
2017-03-20T06:48:04.928Z,964
2017-03-20T06:49:14.938Z,1020
2017-03-20T06:50:25.237Z,756
2017-03-20T06:51:35.838Z,804
2017-03-20T06:52:46.205Z,800
2017-03-20T06:53:56.640Z,672
2017-03-20T06:55:06.979Z,556
2017-03-20T06:56:17.315Z,504
2017-03-20T06:57:27.632Z,624
2017-03-20T06:58:37.958Z,532
2017-03-20T06:59:47.958Z,416
2017-03-20T07:00:58.297Z,432
2017-03-20T07:02:08.611Z,404
2017-03-20T07:03:19.201Z,456
2017-03-20T07:04:29.527Z,552
2017-03-20T07:05:39.894Z,680
2017-03-20T07:06:50.195Z,768
2017-03-20T07:08:00.509Z,788
2017-03-20T07:09:11.097Z,692
2017-03-20T07:10:21.517Z,776
2017-03-20T07:11:31.866Z,964
2017-03-20T07:12:42.203Z,984
2017-03-20T07:13:52.520Z,800
2017-03-20T07:15:03.082Z,844
2017-03-20T07:16:13.100Z,776
2017-03-20T07:17:23.458Z,668
2017-03-20T07:18:33.792Z,664
2017-03-20T07:19:44.161Z,624
2017-03-20T07:20:54.849Z,612
2017-03-20T07:22:05.304Z,760
2017-03-20T07:23:15.636Z,692
2017-03-20T07:24:26.042Z,840
2017-03-20T07:25:36.412Z,920
2017-03-20T07:26:47.031Z,876
2017-03-20T07:27:56.731Z,804
2017-03-20T07:29:06.771Z,748
2017-03-20T07:30:16.887Z,780
2017-03-20T07:31:27.196Z,740
2017-03-20T07:32:37.882Z,704
2017-03-20T07:33:48.222Z,720
2017-03-20T07:34:58.583Z,768
2017-03-20T07:36:08.582Z,952
2017-03-20T07:37:18.605Z,952
2017-03-20T07:38:28.537Z,1036
2017-03-20T07:39:38.864Z,1068
2017-03-20T07:40:49.486Z,1040
2017-03-20T07:41:59.836Z,1372
2017-03-20T07:43:09.539Z,1424
2017-03-20T07:44:20.195Z,1184
2017-03-20T07:45:30.214Z,1556
2017-03-20T07:46:40.231Z,1512
2017-03-20T07:47:50.559Z,1600
2017-03-20T07:49:00.945Z,1576
2017-03-20T07:50:11.590Z,1468
2017-03-20T07:51:21.916Z,1324
2017-03-20T07:52:32.275Z,1256
2017-03-20T07:53:42.620Z,1028
2017-03-20T07:54:53.028Z,848
2017-03-20T07:56:03.958Z,832
2017-03-20T07:57:14.327Z,808
2017-03-20T07:58:24.658Z,880
2017-03-20T07:59:35.018Z,980
2017-03-20T08:00:45.364Z,812
2017-03-20T08:01:56.115Z,812
2017-03-20T08:03:06.438Z,772
2017-03-20T08:04:16.758Z,704
2017-03-20T08:05:27.076Z,740
2017-03-20T08:06:37.459Z,704
2017-03-20T08:07:48.040Z,788
2017-03-20T08:08:58.056Z,832
2017-03-20T08:10:08.374Z,928
2017-03-20T08:11:18.675Z,852
2017-03-20T08:12:28.666Z,1020
2017-03-20T08:13:38.623Z,1144
2017-03-20T08:14:49.086Z,1216
2017-03-20T08:15:59.647Z,1340
2017-03-20T08:17:09.783Z,1352
2017-03-20T08:18:20.338Z,1156
2017-03-20T08:19:31.171Z,1064
2017-03-20T08:20:41.613Z,896
2017-03-20T08:21:52.048Z,844
2017-03-20T08:23:02.151Z,776
2017-03-20T08:24:12.477Z,1076
2017-03-20T08:25:22.467Z,1076
2017-03-20T08:26:32.778Z,1116
2017-03-20T08:27:43.106Z,1004
2017-03-20T08:28:53.430Z,736
2017-03-20T08:30:03.753Z,776
2017-03-20T08:31:14.322Z,904
2017-03-20T08:32:24.631Z,928
2017-03-20T08:33:34.947Z,1000
2017-03-20T08:34:45.001Z,1024
2017-03-20T08:35:55.316Z,1024
2017-03-20T08:37:05.878Z,980
2017-03-20T08:38:16.201Z,1132
2017-03-20T08:39:26.524Z,1080
2017-03-20T08:40:36.832Z,1124
2017-03-20T08:41:46.806Z,1432
2017-03-20T08:42:57.412Z,1388
2017-03-20T08:44:07.425Z,1412
2017-03-20T08:45:17.747Z,1232
2017-03-20T08:46:27.734Z,1028
2017-03-20T08:47:37.757Z,980
2017-03-20T08:48:48.378Z,952
2017-03-20T08:49:58.742Z,928
2017-03-20T08:51:09.108Z,884
2017-03-20T08:52:19.466Z,940
2017-03-20T08:53:29.474Z,920
2017-03-20T08:54:40.078Z,1000
2017-03-20T08:55:50.396Z,1016
2017-03-20T08:57:00.638Z,956
2017-03-20T08:58:11.011Z,1204
2017-03-20T08:59:21.337Z,1120
2017-03-20T09:00:31.966Z,1188
2017-03-20T09:01:42.294Z,1236
2017-03-20T09:02:52.620Z,1144
2017-03-20T09:04:02.932Z,1360
2017-03-20T09:05:13.273Z,1812
2017-03-20T09:06:23.552Z,1936
2017-03-20T09:07:33.876Z,1680
2017-03-20T09:08:44.238Z,1900
2017-03-20T09:09:54.557Z,1964
2017-03-20T09:11:05.025Z,2036
2017-03-20T09:12:15.626Z,2252
2017-03-20T09:13:25.956Z,2212
2017-03-20T09:14:36.319Z,2540
2017-03-20T09:15:46.656Z,2752
2017-03-20T09:16:56.978Z,2836
2017-03-20T09:18:07.556Z,2716
2017-03-20T09:19:18.382Z,2284
2017-03-20T09:20:28.694Z,1896
2017-03-20T09:21:38.701Z,2016
2017-03-20T09:22:49.022Z,2748
2017-03-20T09:23:59.602Z,3820
2017-03-20T09:25:09.622Z,2908
2017-03-20T09:26:19.312Z,2304
2017-03-20T09:27:29.698Z,2076
2017-03-20T09:28:39.715Z,2120
2017-03-20T09:29:50.431Z,1796
2017-03-20T09:31:00.423Z,1532
2017-03-20T09:32:10.806Z,1672
2017-03-20T09:33:21.149Z,1816
2017-03-20T09:34:31.475Z,1436
2017-03-20T09:35:41.738Z,1216
2017-03-20T09:36:52.116Z,1244
2017-03-20T09:38:02.724Z,1492
2017-03-20T09:39:12.750Z,1748
2017-03-20T09:40:22.761Z,1776
2017-03-20T09:41:33.331Z,1644
2017-03-20T09:42:43.376Z,1600
2017-03-20T09:43:53.702Z,1520
2017-03-20T09:45:04.047Z,1468
2017-03-20T09:46:14.045Z,1408
2017-03-20T09:47:24.611Z,1376
2017-03-20T09:48:34.609Z,1376
2017-03-20T09:49:44.598Z,1256
2017-03-20T09:50:54.918Z,1260
2017-03-20T09:52:05.241Z,1288
2017-03-20T09:53:15.881Z,1404
2017-03-20T09:54:26.192Z,1488
2017-03-20T09:55:36.527Z,1644
2017-03-20T09:56:47.132Z,1828
2017-03-20T09:57:57.458Z,2160
2017-03-20T09:59:07.735Z,2060
2017-03-20T10:00:18.076Z,2040
2017-03-20T10:01:28.095Z,2004
2017-03-20T10:02:38.488Z,1860
2017-03-20T10:03:49.066Z,1792
2017-03-20T10:04:59.885Z,1912
2017-03-20T10:06:10.226Z,1908
2017-03-20T10:07:20.541Z,1744
2017-03-20T10:08:30.892Z,1708
2017-03-20T10:09:41.254Z,1588
2017-03-20T10:10:51.884Z,1500
2017-03-20T10:12:02.258Z,1608
2017-03-20T10:13:12.279Z,1908
2017-03-20T10:14:22.609Z,2232
2017-03-20T10:15:32.912Z,2508
2017-03-20T10:16:43.228Z,2680
2017-03-20T10:17:53.271Z,2016
2017-03-20T10:19:03.624Z,1564
2017-03-20T10:20:13.632Z,1640
2017-03-20T10:21:23.627Z,1636
2017-03-20T10:22:34.256Z,1604
2017-03-20T10:23:44.591Z,1884
2017-03-20T10:24:54.916Z,1668
2017-03-20T10:26:04.611Z,1660
2017-03-20T10:27:14.304Z,1724
2017-03-20T10:28:24.671Z,1832
2017-03-20T10:29:35.005Z,1784
2017-03-20T10:30:45.308Z,1820
2017-03-20T10:31:55.634Z,1552
2017-03-20T10:33:05.986Z,1480
2017-03-20T10:34:16.592Z,1360
2017-03-20T10:35:27.001Z,1564
2017-03-20T10:36:37.325Z,1564
2017-03-20T10:37:47.666Z,1552
2017-03-20T10:38:57.997Z,1632
2017-03-20T10:40:08.271Z,1544
2017-03-20T10:41:18.649Z,1792
2017-03-20T10:42:28.994Z,2116
2017-03-20T10:43:39.318Z,2164
2017-03-20T10:44:49.369Z,2224
2017-03-20T10:45:59.946Z,2420
2017-03-20T10:47:10.294Z,2388
2017-03-20T10:48:20.611Z,2748
2017-03-20T10:49:30.936Z,2312
2017-03-20T10:50:41.273Z,2672
2017-03-20T10:51:51.843Z,2348
2017-03-20T10:53:02.174Z,2320
2017-03-20T10:54:12.159Z,2556
2017-03-20T10:55:22.169Z,2664
2017-03-20T10:56:32.171Z,2548
2017-03-20T10:57:42.739Z,2132
2017-03-20T10:58:53.092Z,2480
2017-03-20T11:00:03.092Z,2328
2017-03-20T11:01:13.095Z,2616
2017-03-20T11:02:23.094Z,3072
2017-03-20T11:03:33.668Z,3424
2017-03-20T11:04:43.685Z,3392
2017-03-20T11:05:53.376Z,2804
2017-03-20T11:07:03.964Z,3308
2017-03-20T11:08:14.284Z,3584
2017-03-20T11:09:24.917Z,3608
2017-03-20T11:10:35.282Z,3560
2017-03-20T11:11:45.621Z,3340
2017-03-20T11:12:55.951Z,3240
2017-03-20T11:14:06.269Z,3064
2017-03-20T11:15:16.283Z,2456
2017-03-20T11:16:26.588Z,2536
2017-03-20T11:17:36.912Z,2168
2017-03-20T11:18:46.950Z,2160
2017-03-20T11:19:57.280Z,2012
2017-03-20T11:21:07.894Z,2280
2017-03-20T11:22:17.888Z,2348
2017-03-20T11:23:28.246Z,2236
2017-03-20T11:24:38.576Z,2724
2017-03-20T11:25:48.918Z,2596
2017-03-20T11:26:59.183Z,2412
2017-03-20T11:28:09.522Z,2428
2017-03-20T11:29:19.842Z,2412
2017-03-20T11:30:30.204Z,3112
2017-03-20T11:31:40.254Z,2992
2017-03-20T11:32:50.551Z,3356
2017-03-20T11:34:00.926Z,3720
2017-03-20T11:35:11.375Z,3664
2017-03-20T11:36:21.686Z,3600
2017-03-20T11:37:32.005Z,3220
2017-03-20T11:38:41.995Z,3588
2017-03-20T11:39:52.312Z,3228
2017-03-20T11:41:02.364Z,2896
2017-03-20T11:42:12.687Z,3136
2017-03-20T11:43:22.733Z,3476
2017-03-20T11:44:33.353Z,3824
2017-03-20T11:45:43.678Z,3552
2017-03-20T11:46:54.037Z,3228
2017-03-20T11:48:04.383Z,3024
2017-03-20T11:49:14.717Z,3004
2017-03-20T11:50:25.378Z,2864
2017-03-20T11:51:35.368Z,3120
2017-03-20T11:52:45.372Z,2496
2017-03-20T11:53:55.683Z,2568
2017-03-20T11:55:06.000Z,2964
2017-03-20T11:56:16.575Z,2624
2017-03-20T11:57:26.592Z,2896
2017-03-20T11:58:36.940Z,2512
2017-03-20T11:59:47.267Z,2500
2017-03-20T12:00:57.275Z,2324
2017-03-20T12:02:07.616Z,2312
2017-03-20T12:03:17.948Z,2000
2017-03-20T12:04:28.281Z,2588
2017-03-20T12:05:38.592Z,2652
2017-03-20T12:06:48.902Z,2268
2017-03-20T12:07:59.486Z,2100
2017-03-20T12:09:09.800Z,2192
2017-03-20T12:10:20.105Z,1684
2017-03-20T12:11:30.105Z,1708
2017-03-20T12:12:40.428Z,1868
2017-03-20T12:13:50.672Z,1788
2017-03-20T12:15:01.003Z,1712
2017-03-20T12:16:11.000Z,1692
2017-03-20T12:17:21.356Z,1324
2017-03-20T12:18:31.695Z,1016
2017-03-20T12:19:41.337Z,1004
2017-03-20T12:20:51.644Z,1288
2017-03-20T12:22:01.964Z,1520
2017-03-20T12:23:11.670Z,1952
2017-03-20T12:24:21.986Z,2508
2017-03-20T12:25:32.563Z,2124
2017-03-20T12:26:42.563Z,2388
2017-03-20T12:27:52.576Z,2376
2017-03-20T12:29:02.558Z,2304
2017-03-20T12:30:12.867Z,2068
2017-03-20T12:31:23.428Z,2012
2017-03-20T12:32:33.736Z,2052
2017-03-20T12:33:44.060Z,2140
2017-03-20T12:34:54.387Z,1960
2017-03-20T12:36:04.389Z,1680
2017-03-20T12:37:14.959Z,1508
2017-03-20T12:38:25.284Z,1656
2017-03-20T12:39:35.601Z,1916
2017-03-20T12:40:45.612Z,1812
2017-03-20T12:41:55.928Z,1620
2017-03-20T12:43:06.566Z,1640
2017-03-20T12:44:16.598Z,1916
2017-03-20T12:45:26.920Z,2224
2017-03-20T12:46:37.242Z,1920
2017-03-20T12:47:47.278Z,1932
2017-03-20T12:48:58.181Z,1676
2017-03-20T12:50:08.631Z,1408
2017-03-20T12:51:18.990Z,1540
2017-03-20T12:52:29.310Z,1620
2017-03-20T12:53:39.649Z,1436
2017-03-20T12:54:49.930Z,2256
2017-03-20T12:55:59.935Z,2324
2017-03-20T12:57:09.929Z,2200
2017-03-20T12:58:20.259Z,2036
2017-03-20T12:59:30.574Z,1928
2017-03-20T13:00:41.161Z,2060
2017-03-20T13:01:51.227Z,2036
2017-03-20T13:03:01.603Z,1844
2017-03-20T13:04:11.609Z,1632
2017-03-20T13:05:21.605Z,1608
2017-03-20T13:06:31.845Z,1424
2017-03-20T13:07:41.577Z,1608
2017-03-20T13:08:52.109Z,1352
2017-03-20T13:10:02.608Z,1684
2017-03-20T13:11:12.953Z,1996
2017-03-20T13:12:23.609Z,1496
2017-03-20T13:13:33.606Z,1576
2017-03-20T13:14:43.960Z,1924
2017-03-20T13:15:54.293Z,1952
2017-03-20T13:17:04.628Z,2488
2017-03-20T13:18:14.886Z,2952
2017-03-20T13:19:24.892Z,2788
2017-03-20T13:20:35.233Z,2344
2017-03-20T13:21:45.561Z,2440
2017-03-20T13:22:55.925Z,2368
2017-03-20T13:24:06.592Z,1924
2017-03-20T13:25:16.950Z,2172
2017-03-20T13:26:27.300Z,2168
2017-03-20T13:27:37.609Z,1632
2017-03-20T13:28:47.929Z,1888
2017-03-20T13:29:58.236Z,2356
2017-03-20T13:31:08.581Z,2756
2017-03-20T13:32:18.887Z,2364
2017-03-20T13:33:29.196Z,2284
2017-03-20T13:34:39.515Z,2180
2017-03-20T13:35:50.139Z,2580
2017-03-20T13:37:00.152Z,2572
2017-03-20T13:38:10.194Z,2356
2017-03-20T13:39:20.212Z,1948
2017-03-20T13:40:30.232Z,2284
2017-03-20T13:41:40.856Z,3052
2017-03-20T13:42:51.866Z,3184
2017-03-20T13:44:01.865Z,2792
2017-03-20T13:45:11.862Z,2884
2017-03-20T13:46:21.881Z,3256
2017-03-20T13:47:32.595Z,2868
2017-03-20T13:48:43.184Z,2556
2017-03-20T13:49:53.637Z,2592
2017-03-20T13:51:03.893Z,2684
2017-03-20T13:52:14.229Z,2708
2017-03-20T13:53:24.866Z,2828
2017-03-20T13:54:35.202Z,2864
2017-03-20T13:55:45.625Z,2780
2017-03-20T13:56:55.636Z,2724
2017-03-20T13:58:05.977Z,2600
2017-03-20T13:59:16.261Z,2596
2017-03-20T14:00:26.266Z,2552
2017-03-20T14:01:36.573Z,2648
2017-03-20T14:02:46.894Z,2764
2017-03-20T14:03:57.248Z,2548
2017-03-20T14:05:07.928Z,2604
2017-03-20T14:06:18.624Z,2260
2017-03-20T14:07:28.623Z,2460
2017-03-20T14:08:38.676Z,3160
2017-03-20T14:09:49.007Z,3152
2017-03-20T14:10:58.949Z,2192
2017-03-20T14:12:09.304Z,1820
2017-03-20T14:13:19.645Z,2012
2017-03-20T14:14:29.973Z,1992
2017-03-20T14:15:40.306Z,1828
2017-03-20T14:16:50.879Z,1736
2017-03-20T14:18:01.205Z,1736
2017-03-20T14:19:11.232Z,1864
2017-03-20T14:20:20.946Z,2000
2017-03-20T14:21:31.256Z,2024
2017-03-20T14:22:41.549Z,2052
2017-03-20T14:23:51.933Z,1900
2017-03-20T14:25:02.246Z,2028
2017-03-20T14:26:12.242Z,1984
2017-03-20T14:27:22.264Z,1984
2017-03-20T14:28:32.572Z,1972
2017-03-20T14:29:42.942Z,1956
2017-03-20T14:30:52.934Z,1920
2017-03-20T14:32:03.269Z,1900
2017-03-20T14:33:13.583Z,1988
2017-03-20T14:34:24.170Z,2060
2017-03-20T14:35:34.479Z,1880
2017-03-20T14:36:44.776Z,1916
2017-03-20T14:37:55.093Z,1820
2017-03-20T14:39:05.411Z,1988
2017-03-20T14:40:15.979Z,1800
2017-03-20T14:41:26.313Z,1852
2017-03-20T14:42:36.320Z,1920
2017-03-20T14:43:46.005Z,1768
2017-03-20T14:44:56.335Z,1436
2017-03-20T14:46:06.945Z,1256
2017-03-20T14:47:17.248Z,1180
2017-03-20T14:48:27.253Z,1236
2017-03-20T14:49:37.256Z,1040
2017-03-20T14:50:47.252Z,748
2017-03-20T14:51:57.567Z,740
2017-03-20T14:53:07.891Z,860
2017-03-20T14:54:18.239Z,864
2017-03-20T14:55:28.555Z,840
2017-03-20T14:56:38.853Z,868
2017-03-20T14:57:49.085Z,1140
2017-03-20T14:58:58.784Z,1112
2017-03-20T15:00:09.119Z,776
2017-03-20T15:01:19.444Z,988
2017-03-20T15:02:29.762Z,1020
2017-03-20T15:03:40.325Z,844
2017-03-20T15:04:50.648Z,688
2017-03-20T15:06:00.964Z,1068
2017-03-20T15:07:11.259Z,1132
2017-03-20T15:08:21.575Z,1364
2017-03-20T15:09:32.153Z,1548
2017-03-20T15:10:42.489Z,1624
2017-03-20T15:11:52.805Z,1328
2017-03-20T15:13:03.119Z,1284
2017-03-20T15:14:13.456Z,1272
2017-03-20T15:15:23.455Z,1204
2017-03-20T15:16:33.784Z,1176
2017-03-20T15:17:44.104Z,1220
2017-03-20T15:18:54.428Z,1136
2017-03-20T15:20:04.746Z,1096
2017-03-20T15:21:15.309Z,1208
2017-03-20T15:22:25.660Z,1288
2017-03-20T15:23:35.970Z,1408
2017-03-20T15:24:46.265Z,1592
2017-03-20T15:25:56.252Z,1604
2017-03-20T15:27:06.882Z,1460
2017-03-20T15:28:17.199Z,1392
2017-03-20T15:29:27.525Z,1452
2017-03-20T15:30:37.839Z,1496
2017-03-20T15:31:48.152Z,1352
2017-03-20T15:32:58.449Z,1136
2017-03-20T15:34:08.768Z,952
2017-03-20T15:35:19.106Z,872
2017-03-20T15:36:29.445Z,872
2017-03-20T15:37:39.769Z,904
2017-03-20T15:38:50.392Z,916
2017-03-20T15:40:00.725Z,928
2017-03-20T15:41:11.038Z,956
2017-03-20T15:42:21.039Z,872
2017-03-20T15:43:31.342Z,868
2017-03-20T15:44:41.907Z,868
2017-03-20T15:45:52.210Z,868
2017-03-20T15:47:02.274Z,896
2017-03-20T15:48:12.597Z,880
2017-03-20T15:49:22.913Z,828
2017-03-20T15:50:33.465Z,808
2017-03-20T15:51:43.772Z,784
2017-03-20T15:52:53.782Z,768
2017-03-20T15:54:04.146Z,744
2017-03-20T15:55:14.456Z,712
2017-03-20T15:56:25.272Z,736
2017-03-20T15:57:35.272Z,792
2017-03-20T15:58:45.582Z,816
2017-03-20T15:59:55.894Z,784
2017-03-20T16:01:06.217Z,760
2017-03-20T16:02:16.777Z,752
2017-03-20T16:03:27.133Z,732
2017-03-20T16:04:37.443Z,680
2017-03-20T16:05:47.749Z,644
2017-03-20T16:06:58.085Z,644
2017-03-20T16:08:08.647Z,632
2017-03-20T16:09:18.962Z,644
2017-03-20T16:10:29.297Z,628
2017-03-20T16:11:39.621Z,604
2017-03-20T16:12:49.932Z,596
2017-03-20T16:14:00.172Z,644
2017-03-20T16:15:09.867Z,644